Time;durP1;ratioP1;P1;durP2;ratioP2;P2;SDS_P1;SDS_P2;PMS_P1;PMS_P2;Temp;Humidity;BMP_temperature;BMP_pressure;BME280_temperature;BME280_humidity;BME280_pressure;Samples;Min_cycle;Max_cycle;Signal;HPM_P1;HPM_P2
2022/03/31 00:00:19;;;;;;;4.88;3.60;;;;;;;4.74;73.34;100011.25;4938088;29;20046;-84
2022/03/31 00:02:45;;;;;;;4.80;3.35;;;;;;;4.78;73.27;100003.59;4953401;29;20089;-85
2022/03/31 00:05:11;;;;;;;5.15;3.60;;;;;;;4.67;73.47;100002.59;4934611;29;20131;-84
2022/03/31 00:07:50;;;;;;;4.77;3.70;;;;;;;4.68;73.63;100015.66;4951500;29;20027;-84
2022/03/31 00:10:32;;;;;;;4.55;3.55;;;;;;;4.69;73.72;100011.97;4938111;29;20055;-84
2022/03/31 00:12:59;;;;;;;4.88;3.53;;;;;;;4.64;73.69;100009.22;4952222;29;20035;-84
2022/03/31 00:15:27;;;;;;;7.60;3.45;;;;;;;4.64;74.24;100006.56;4949650;29;20023;-84
2022/03/31 00:17:53;;;;;;;5.95;3.83;;;;;;;4.67;73.80;100022.00;4939248;29;20110;-84
2022/03/31 00:23:40;;;;;;;5.57;4.17;;;;;;;4.65;73.70;100002.06;4952330;29;20042;-84
2022/03/31 00:26:05;;;;;;;5.87;3.73;;;;;;;4.66;74.01;100003.66;4951103;29;20291;-83
2022/03/31 00:28:30;;;;;;;5.53;3.80;;;;;;;4.66;74.11;99993.84;4949682;28;20035;-83
2022/03/31 00:30:57;;;;;;;7.07;4.00;;;;;;;4.74;74.13;99999.84;4951732;29;20035;-83
2022/03/31 00:33:22;;;;;;;9.50;4.32;;;;;;;4.70;74.32;99997.66;4951797;29;20027;-83
2022/03/31 00:35:47;;;;;;;7.37;4.17;;;;;;;4.68;74.55;99998.91;4950936;29;20031;-82
2022/03/31 00:38:13;;;;;;;8.73;4.03;;;;;;;4.67;74.42;100002.59;4935464;29;20039;-83
2022/03/31 00:40:39;;;;;;;6.20;4.30;;;;;;;4.63;74.14;100007.59;4950610;28;20118;-83
2022/03/31 00:43:04;;;;;;;7.77;4.53;;;;;;;4.62;74.60;99998.03;4951711;29;20102;-83
2022/03/31 00:45:34;;;;;;;6.07;4.27;;;;;;;4.63;74.57;100002.28;4950866;29;20283;-83
2022/03/31 00:48:00;;;;;;;9.55;4.93;;;;;;;4.66;74.75;100007.13;4949209;29;20035;-83
2022/03/31 00:50:26;;;;;;;8.27;5.15;;;;;;;4.65;74.97;100013.47;4951028;29;20041;-83
2022/03/31 00:52:53;;;;;;;7.93;4.93;;;;;;;4.64;75.21;100001.25;4951628;29;20035;-83
2022/03/31 00:55:21;;;;;;;16.00;5.65;;;;;;;4.62;74.61;100003.31;4951164;29;20490;-83
2022/03/31 00:57:48;;;;;;;10.25;6.00;;;;;;;4.57;75.39;100005.88;4950045;29;20027;-83
2022/03/31 01:00:17;;;;;;;8.93;5.60;;;;;;;4.59;75.19;100011.75;4948322;29;20549;-83
2022/03/31 01:02:44;;;;;;;13.95;5.93;;;;;;;4.54;75.38;100009.03;4951988;29;20171;-83
2022/03/31 01:05:11;;;;;;;8.63;5.65;;;;;;;4.49;75.62;100003.63;4950759;29;20055;-82
2022/03/31 01:07:37;;;;;;;7.20;5.03;;;;;;;4.51;75.82;100006.84;4951364;29;20039;-82
2022/03/31 01:10:05;;;;;;;8.70;5.50;;;;;;;4.43;75.68;99999.25;4951095;29;20033;-82
2022/03/31 01:12:31;;;;;;;7.53;5.13;;;;;;;4.47;75.75;100003.88;4951262;29;20047;-85
2022/03/31 01:15:15;;;;;;;9.43;5.53;;;;;;;4.50;75.25;100005.25;4951738;29;20990;-82
2022/03/31 01:17:43;;;;;;;8.80;5.40;;;;;;;4.45;75.97;100000.66;4944218;29;20031;-82
2022/03/31 01:20:11;;;;;;;8.80;5.38;;;;;;;4.47;76.23;100003.88;4949444;29;20554;-82
2022/03/31 01:22:37;;;;;;;8.75;6.03;;;;;;;4.49;76.22;99999.13;4951780;29;20090;-85
2022/03/31 01:25:06;;;;;;;11.38;6.43;;;;;;;4.50;76.33;99995.41;4942963;29;20076;-82
2022/03/31 01:27:35;;;;;;;8.73;5.20;;;;;;;4.51;76.42;99985.63;4931506;29;20032;-82
2022/03/31 01:30:01;;;;;;;10.02;6.35;;;;;;;4.47;76.25;99984.47;4937999;29;20023;-83
2022/03/31 01:32:26;;;;;;;15.82;6.00;;;;;;;4.47;76.40;99979.19;4932197;29;20475;-83
2022/03/31 01:34:51;;;;;;;11.00;5.80;;;;;;;4.53;76.62;99979.03;4932410;29;20028;-83
2022/03/31 01:37:17;;;;;;;9.85;5.90;;;;;;;4.53;76.25;99981.69;4930098;29;20036;-83
2022/03/31 01:39:43;;;;;;;12.67;6.87;;;;;;;4.52;76.47;99976.63;4945273;29;20027;-83
2022/03/31 01:42:09;;;;;;;12.50;6.85;;;;;;;4.49;76.73;99969.94;4950154;29;20475;-83
2022/03/31 01:44:35;;;;;;;13.60;7.07;;;;;;;4.54;76.65;99977.19;4950809;29;20034;-83
2022/03/31 01:47:01;;;;;;;12.80;6.82;;;;;;;4.51;76.70;99973.16;4950709;29;20380;-83
2022/03/31 01:49:26;;;;;;;15.38;7.55;;;;;;;4.45;77.69;99975.97;4949599;29;20082;-83
2022/03/31 01:51:52;;;;;;;14.87;8.30;;;;;;;4.34;78.58;99973.13;4935578;29;20027;-83
2022/03/31 01:54:17;;;;;;;14.77;7.93;;;;;;;4.20;79.23;99963.84;4946564;29;20346;-83
2022/03/31 01:56:44;;;;;;;12.70;7.17;;;;;;;4.13;79.63;99960.53;4954622;29;20074;-83
2022/03/31 01:59:11;;;;;;;11.10;6.75;;;;;;;4.04;80.96;99955.56;4949296;29;20031;-83
2022/03/31 02:01:36;;;;;;;11.20;6.38;;;;;;;4.04;81.98;99968.03;4955176;29;20386;-82
2022/03/31 02:04:02;;;;;;;14.07;7.25;;;;;;;3.92;81.80;99950.34;4954407;29;20031;-83
2022/03/31 02:06:27;;;;;;;13.40;6.90;;;;;;;3.86;81.77;99953.09;4953850;29;20027;-83
2022/03/31 02:08:55;;;;;;;14.17;7.80;;;;;;;3.83;82.87;99958.88;4947447;29;20039;-83
2022/03/31 02:11:20;;;;;;;14.00;6.88;;;;;;;3.72;83.11;99948.06;4951666;29;20089;-84
2022/03/31 02:13:45;;;;;;;13.05;7.63;;;;;;;3.71;83.79;99954.41;4953034;29;20027;-84
2022/03/31 02:16:11;;;;;;;15.10;7.73;;;;;;;3.67;84.84;99947.94;4953140;29;20074;-84
2022/03/31 02:18:36;;;;;;;17.07;7.73;;;;;;;3.66;85.52;99943.69;4952567;29;20118;-84
2022/03/31 02:21:02;;;;;;;13.40;7.63;;;;;;;3.67;85.79;99955.91;4954792;29;20078;-85
2022/03/31 02:23:27;;;;;;;14.27;7.95;;;;;;;3.58;85.63;99941.41;4943524;29;20031;-84
2022/03/31 02:25:53;;;;;;;15.00;7.73;;;;;;;3.54;85.70;99935.78;4950222;29;20122;-84
2022/03/31 02:28:18;;;;;;;16.20;8.00;;;;;;;3.62;86.02;99945.22;4934153;29;20539;-84
2022/03/31 02:30:44;;;;;;;15.67;7.80;;;;;;;3.61;85.95;99935.66;4953806;29;20023;-83
2022/03/31 02:33:09;;;;;;;13.20;7.47;;;;;;;3.54;85.75;99924.34;4954273;29;20031;-83
2022/03/31 02:35:34;;;;;;;16.57;7.97;;;;;;;3.56;86.23;99924.94;4953968;29;20461;-84
2022/03/31 02:38:00;;;;;;;15.87;8.03;;;;;;;3.63;86.66;99938.88;4954018;29;20055;-84
2022/03/31 02:40:25;;;;;;;14.25;6.55;;;;;;;3.55;86.32;99920.69;4953177;29;20656;-84
2022/03/31 02:45:23;;;;;;;17.40;8.30;;;;;;;3.48;86.99;99918.94;4913884;29;20088;-84
2022/03/31 02:47:52;;;;;;;15.37;8.53;;;;;;;3.45;87.15;99916.78;4897028;29;20044;-84
2022/03/31 02:50:18;;;;;;;15.73;7.93;;;;;;;3.52;87.21;99926.44;4912823;29;20064;-84
2022/03/31 02:55:55;;;;;;;13.43;7.10;;;;;;;3.48;86.62;99913.66;4915547;29;20047;-84
2022/03/31 02:58:20;;;;;;;16.42;7.50;;;;;;;3.38;87.34;99907.34;4872569;29;20079;-84
2022/03/31 03:00:46;;;;;;;14.03;7.93;;;;;;;3.47;87.64;99919.97;4912903;29;20070;-84
2022/03/31 03:03:11;;;;;;;17.07;7.10;;;;;;;3.45;88.25;99908.84;4915344;29;20457;-83
2022/03/31 03:05:37;;;;;;;11.93;6.97;;;;;;;3.43;88.87;99904.78;4913641;29;20536;-84
2022/03/31 03:08:03;;;;;;;11.40;6.90;;;;;;;3.45;89.11;99921.25;4897920;29;20028;-83
2022/03/31 03:10:29;;;;;;;10.80;7.03;;;;;;;3.42;89.10;99905.84;4914935;29;20071;-84
2022/03/31 03:12:57;;;;;;;12.07;7.00;;;;;;;3.43;88.76;99907.44;4915413;29;20032;-84
2022/03/31 03:15:24;;;;;;;10.68;6.95;;;;;;;3.37;89.77;99908.41;4914045;29;20032;-83
2022/03/31 03:17:50;;;;;;;11.70;7.70;;;;;;;3.29;90.44;99909.53;4914100;29;20107;-84
2022/03/31 03:20:15;;;;;;;14.90;7.93;;;;;;;3.23;91.09;99903.31;4913048;29;20544;-84
2022/03/31 03:22:47;;;;;;;14.60;7.95;;;;;;;3.23;91.47;99902.53;4914144;29;20032;-84
2022/03/31 03:25:13;;;;;;;12.40;8.13;;;;;;;3.21;91.93;99894.00;4914041;29;20032;-84
2022/03/31 03:27:39;;;;;;;13.47;8.13;;;;;;;3.21;91.88;99889.50;4912946;29;20343;-84
2022/03/31 03:30:06;;;;;;;12.73;8.02;;;;;;;3.24;91.00;99896.97;4915181;29;20051;-83
2022/03/31 03:32:32;;;;;;;14.18;8.70;;;;;;;3.25;91.48;99895.16;4914332;29;20040;-82
2022/03/31 03:34:57;;;;;;;14.68;8.50;;;;;;;3.20;92.40;99902.97;4913482;29;20060;-83
2022/03/31 03:37:22;;;;;;;14.83;8.80;;;;;;;3.10;92.01;99888.50;4912370;29;20039;-83
2022/03/31 03:39:48;;;;;;;15.17;8.60;;;;;;;3.12;92.60;99899.63;4913139;29;20040;-83
2022/03/31 03:42:14;;;;;;;14.00;8.15;;;;;;;3.07;92.38;99888.13;4912859;29;20116;-83
2022/03/31 03:44:40;;;;;;;9.37;6.20;;;;;;;2.97;92.58;99886.06;4914109;29;20024;-83
2022/03/31 03:47:05;;;;;;;6.63;4.93;;;;;;;2.96;92.58;99895.84;4913077;29;20782;-83
2022/03/31 03:49:31;;;;;;;6.47;4.93;;;;;;;2.84;92.61;99903.78;4914881;29;20067;-83
2022/03/31 03:51:56;;;;;;;6.07;3.80;;;;;;;2.79;92.38;99906.31;4912286;29;20016;-83
2022/03/31 03:54:21;;;;;;;4.53;3.85;;;;;;;2.72;93.02;99911.69;4914264;29;20111;-83
2022/03/31 03:56:47;;;;;;;6.50;3.93;;;;;;;2.62;93.24;99902.72;4911737;29;20042;-83
2022/03/31 03:59:12;;;;;;;4.93;3.73;;;;;;;2.62;93.31;99906.19;4912030;29;20491;-82
2022/03/31 04:01:37;;;;;;;4.50;3.60;;;;;;;2.63;93.25;99901.69;4914120;29;20060;-84
2022/03/31 04:04:03;;;;;;;4.50;3.50;;;;;;;2.57;93.17;99904.19;4914222;29;20035;-84
2022/03/31 04:06:28;;;;;;;4.43;3.38;;;;;;;2.50;92.88;99902.69;4914586;29;20437;-85
2022/03/31 04:08:53;;;;;;;3.90;3.37;;;;;;;2.43;93.05;99897.50;4913099;29;20108;-84
2022/03/31 04:11:19;;;;;;;3.57;3.00;;;;;;;2.39;93.24;99905.09;4913012;29;20027;-84
2022/03/31 04:13:46;;;;;;;3.73;3.20;;;;;;;2.26;92.93;99906.06;4914040;29;20565;-83
2022/03/31 04:16:11;;;;;;;3.70;2.90;;;;;;;2.19;93.47;99909.84;4911820;29;20531;-83
2022/03/31 04:18:37;;;;;;;4.60;2.97;;;;;;;2.11;93.73;99910.97;4913431;29;20028;-83
2022/03/31 04:21:02;;;;;;;4.90;2.87;;;;;;;2.05;93.94;99906.56;4913301;29;20021;-83
2022/03/31 04:23:28;;;;;;;4.50;3.37;;;;;;;2.00;94.93;99909.88;4915273;29;20023;-86
2022/03/31 04:25:54;;;;;;;3.30;3.00;;;;;;;1.98;95.23;99905.88;4920170;29;20296;-84
2022/03/31 04:28:19;;;;;;;3.97;3.40;;;;;;;1.85;95.63;99897.06;4912897;29;20542;-85
2022/03/31 04:30:45;;;;;;;3.50;3.07;;;;;;;1.89;96.20;99906.16;4918295;29;20475;-83
2022/03/31 04:33:10;;;;;;;5.07;3.43;;;;;;;1.85;96.84;99920.03;4919036;29;20118;-85
2022/03/31 04:35:36;;;;;;;5.35;3.38;;;;;;;1.76;97.09;99911.63;4918619;29;20107;-85
2022/03/31 04:38:02;;;;;;;4.23;3.37;;;;;;;1.70;97.21;99899.28;4916118;29;20035;-86
2022/03/31 04:40:27;;;;;;;5.07;3.20;;;;;;;1.76;97.65;99916.91;4915427;29;20040;-85
2022/03/31 04:42:53;;;;;;;4.20;3.80;;;;;;;1.70;98.55;99910.66;4915397;29;20084;-85
2022/03/31 04:45:18;;;;;;;3.63;2.90;;;;;;;1.63;98.90;99905.47;4914808;29;20032;-85
2022/03/31 04:47:43;;;;;;;4.10;3.40;;;;;;;1.53;99.09;99901.72;4904953;29;20484;-85
2022/03/31 04:50:09;;;;;;;4.93;3.13;;;;;;;1.56;99.96;99911.81;4909626;29;20032;-85
2022/03/31 04:52:34;;;;;;;4.40;3.30;;;;;;;1.44;100.00;99914.41;4908187;29;20035;-85
2022/03/31 04:55:00;;;;;;;3.67;3.03;;;;;;;1.41;99.87;99905.09;4913402;29;20063;-85
2022/03/31 04:57:25;;;;;;;3.53;2.97;;;;;;;1.26;100.00;99891.44;4913548;29;20034;-85
2022/03/31 04:59:50;;;;;;;4.32;3.20;;;;;;;1.33;100.00;99914.09;4913185;29;20496;-85
2022/03/31 05:02:18;;;;;;;5.60;3.50;;;;;;;1.31;100.00;99918.78;4913030;29;20039;-85
2022/03/31 05:04:43;;;;;;;6.25;2.88;;;;;;;1.27;100.00;99914.16;4909169;29;20035;-85
2022/03/31 05:07:08;;;;;;;2.57;2.07;;;;;;;1.18;100.00;99918.94;4895235;29;20404;-85
2022/03/31 05:09:34;;;;;;;3.47;3.10;;;;;;;1.07;100.00;99909.88;4913061;29;20125;-86
2022/03/31 05:11:59;;;;;;;7.10;3.30;;;;;;;1.08;100.00;99905.44;4903492;29;20115;-87
2022/03/31 05:17:35;;;;;;;4.75;3.40;;;;;;;0.99;100.00;99889.88;4890370;29;20047;-86
2022/03/31 05:20:11;;;;;;;8.50;3.40;;;;;;;1.17;100.00;99917.31;4910318;29;20028;-87
2022/03/31 05:22:39;;;;;;;5.13;3.30;;;;;;;1.12;100.00;99915.31;4913984;29;20291;-87
2022/03/31 05:25:07;;;;;;;4.28;3.03;;;;;;;1.13;100.00;99924.03;4912938;29;20035;-88
2022/03/31 05:27:32;;;;;;;4.80;3.42;;;;;;;1.07;100.00;99917.00;4914144;29;20028;-87
2022/03/31 05:29:57;;;;;;;5.47;3.17;;;;;;;1.02;100.00;99915.00;4912971;29;20031;-87
2022/03/31 05:32:24;;;;;;;5.17;3.07;;;;;;;0.96;100.00;99919.31;4918000;29;20876;-87
2022/03/31 05:34:50;;;;;;;3.80;2.95;;;;;;;0.91;100.00;99927.09;4900621;29;20023;-86
2022/03/31 05:37:16;;;;;;;5.90;2.77;;;;;;;0.88;100.00;99917.75;4916074;29;20115;-88
2022/03/31 05:39:42;;;;;;;5.25;2.90;;;;;;;0.89;100.00;99926.50;4916047;29;20044;-86
2022/03/31 05:42:08;;;;;;;4.38;3.00;;;;;;;0.75;100.00;99917.88;4917096;29;20111;-85
2022/03/31 05:44:33;;;;;;;6.33;3.27;;;;;;;0.54;100.00;99922.47;4914010;29;20127;-85
2022/03/31 05:46:59;;;;;;;6.63;3.10;;;;;;;0.37;100.00;99921.38;4917169;29;20067;-84
2022/03/31 05:49:24;;;;;;;3.87;2.87;;;;;;;0.21;100.00;99926.13;4915969;29;20336;-84
2022/03/31 05:51:49;;;;;;;3.53;2.93;;;;;;;0.11;100.00;99921.31;4917016;29;20417;-85
2022/03/31 05:54:15;;;;;;;3.70;2.30;;;;;;;-0.03;100.00;99919.78;4929485;23;20036;-84
2022/03/31 05:56:56;;;;;;;4.40;2.43;;;;;;;-0.22;100.00;99897.75;4893271;29;20449;-84
2022/03/31 06:31:16;;;;;;;3.60;2.33;;;;;;;-0.58;100.00;99901.72;4910589;29;20106;-84
2022/03/31 06:41:16;;;;;;;;;;;;;;;;;;;;;
2022/03/31 06:43:46;;;;;;;3.55;2.47;;;;;;;-0.29;100.00;99923.31;4873651;29;20056;-83
2022/03/31 06:46:49;;;;;;;4.05;2.42;;;;;;;-0.42;100.00;99903.09;4844080;29;20030;-83
2022/03/31 06:58:34;;;;;;;3.90;2.60;;;;;;;-0.25;100.00;99888.47;4853692;29;20113;-83
2022/03/31 07:01:14;;;;;;;4.70;3.38;;;;;;;-0.13;100.00;99887.78;4934269;29;20048;-83
2022/03/31 07:03:49;;;;;;;4.10;3.20;;;;;;;-0.08;100.00;99895.88;4934190;29;20594;-82
2022/03/31 07:06:14;;;;;;;4.28;3.55;;;;;;;0.02;100.00;99909.41;4928998;29;20452;-83
2022/03/31 07:08:42;;;;;;;10.07;7.97;;;;;;;0.05;100.00;99913.44;4935007;29;20128;-82
2022/03/31 07:11:21;;;;;;;8.07;6.20;;;;;;;0.00;100.00;99895.66;4931741;29;20601;-82
2022/03/31 07:13:48;;;;;;;5.97;4.10;;;;;;;0.00;100.00;99900.91;4934975;29;20276;-82
2022/03/31 07:16:23;;;;;;;4.80;4.07;;;;;;;0.24;100.00;99931.00;4915470;29;20575;-82
2022/03/31 07:18:58;;;;;;;5.80;3.85;;;;;;;0.27;100.00;99935.81;4934766;29;20024;-82
2022/03/31 07:21:24;;;;;;;7.18;4.03;;;;;;;0.05;100.00;99895.81;4933702;29;20080;-83
2022/03/31 07:24:03;;;;;;;4.97;3.87;;;;;;;0.17;100.00;99911.75;4933328;29;20053;-82
2022/03/31 07:26:36;;;;;;;4.68;3.42;;;;;;;0.14;100.00;99894.56;4915371;29;20111;-83
2022/03/31 07:29:47;;;;;;;4.88;3.67;;;;;;;0.41;100.00;99928.63;4915015;29;20047;-82
2022/03/31 07:32:23;;;;;;;5.22;4.07;;;;;;;0.26;100.00;99888.59;4923840;29;20054;-83
2022/03/31 07:35:03;;;;;;;4.20;3.60;;;;;;;0.16;100.00;99886.44;4933490;29;20119;-83
2022/03/31 07:37:56;;;;;;;7.25;3.88;;;;;;;0.24;100.00;99902.00;4914976;29;20347;-81
2022/03/31 07:40:49;;;;;;;9.02;3.90;;;;;;;0.40;100.00;99932.28;4891765;29;20044;-81
2022/03/31 07:44:21;;;;;;;7.63;5.22;;;;;;;0.20;100.00;99889.44;4872922;29;20458;-81
2022/03/31 07:46:15;;;;;;;6.28;4.32;;;;;;;0.37;100.00;99916.91;4916755;29;20039;-81
2022/03/31 07:48:52;;;;;;;5.00;3.70;;;;;;;0.28;100.00;99891.84;4934377;29;20032;-81
2022/03/31 07:51:18;;;;;;;4.57;3.75;;;;;;;0.48;100.00;99911.97;4931614;29;20042;-80
2022/03/31 07:53:47;;;;;;;6.27;4.23;;;;;;;0.53;100.00;99909.53;4933226;29;20024;-81
2022/03/31 07:56:27;;;;;;;4.90;3.67;;;;;;;0.52;100.00;99881.53;4932646;29;20299;-81
2022/03/31 07:59:09;;;;;;;4.78;3.80;;;;;;;0.67;100.00;99887.31;4911940;29;20040;-81
2022/03/31 08:01:52;;;;;;;5.18;4.28;;;;;;;0.91;100.00;99921.81;4933020;29;20024;-81
2022/03/31 08:05:30;;;;;;;8.73;6.03;;;;;;;0.66;100.00;99892.78;4932170;29;20118;-82
2022/03/31 08:08:00;;;;;;;16.70;10.18;;;;;;;0.65;100.00;99893.78;4930261;29;20042;-81
2022/03/31 08:10:25;;;;;;;5.90;4.95;;;;;;;0.64;100.00;99893.00;4933236;29;20027;-81
2022/03/31 08:12:57;;;;;;;5.67;4.40;;;;;;;0.65;100.00;99888.53;4916818;29;20443;-81
2022/03/31 08:16:03;;;;;;;4.10;3.53;;;;;;;0.67;100.00;99887.31;4925209;29;20522;-81
2022/03/31 08:19:39;;;;;;;5.70;4.22;;;;;;;0.95;100.00;99933.53;4855582;29;20041;-81
2022/03/31 08:22:30;;;;;;;;;;;;;;;;;;;;;
2022/03/31 08:25:46;;;;;;;;;;;;;;;;;;;;;
2022/03/31 08:32:42;;;;;;;3.60;3.17;;;;;;;0.73;100.00;99889.06;4819292;29;20171;-82
2022/03/31 08:43:04;;;;;;;3.50;3.00;;;;;;;0.96;100.00;99887.66;4855571;29;20042;-82
2022/03/31 08:45:46;;;;;;;3.53;3.00;;;;;;;1.24;100.00;99925.97;4854742;29;20056;-82
2022/03/31 08:52:43;;;;;;;4.30;3.55;;;;;;;1.45;100.00;99929.22;4799801;29;20039;-82
2022/03/31 08:58:56;;;;;;;3.90;3.30;;;;;;;1.44;100.00;99895.94;4819030;29;20472;-82
2022/03/31 09:05:06;;;;;;;3.22;2.90;;;;;;;1.57;100.00;99924.81;4865984;29;20501;-82
2022/03/31 09:07:33;;;;;;;3.97;3.17;;;;;;;1.51;100.00;99905.41;4860797;29;20421;-83
2022/03/31 09:10:08;;;;;;;4.97;3.40;;;;;;;1.51;100.00;99901.94;4873804;29;20286;-84
2022/03/31 09:12:37;;;;;;;3.15;2.70;;;;;;;1.76;100.00;99927.47;4876563;29;20126;-85
2022/03/31 09:22:52;;;;;;;;;;;;;;;;;;;;;
2022/03/31 11:32:56;;;;;;;;;;;;;;;;;;;;;
2022/03/31 11:36:32;;;;;;;;;;;;;;;;;;;;;
2022/03/31 11:42:21;;;;;;;4.82;4.15;;;;;;;2.51;100.00;99865.44;4880141;29;20138;-84
2022/03/31 13:40:12;;;;;;;6.18;5.25;;;;;;;3.74;100.00;99818.00;4929469;29;20412;-83
2022/03/31 18:46:17;;;;;;;8.63;6.00;;;;;;;1.63;100.00;99942.44;5836472;23;20051;-90
2022/03/31 18:49:29;;;;;;;5.60;3.85;;;;;;;1.64;100.00;99944.03;5042844;23;20044;-90
2022/03/31 18:52:07;;;;;;;3.63;3.07;;;;;;;1.49;100.00;99927.75;4965274;29;20030;-87
2022/03/31 19:07:36;;;;;;;7.00;4.70;;;;;;;1.29;100.00;99952.50;5791264;23;20161;-88
2022/03/31 19:10:32;;;;;;;5.45;4.20;;;;;;;0.98;100.00;99909.34;4963508;28;20027;-85
2022/03/31 19:59:50;;;;;;;;;;;;;;;;;;;;;
2022/03/31 20:02:18;;;;;;;7.47;5.10;;;;;;;0.37;100.00;99977.53;5007312;23;20062;-83
2022/03/31 20:04:44;;;;;;;7.78;5.53;;;;;;;0.32;100.00;99964.19;4934342;29;20028;-86
2022/03/31 20:07:10;;;;;;;10.50;6.00;;;;;;;0.35;100.00;99986.66;4930869;29;20420;-87
2022/03/31 20:09:36;;;;;;;9.65;6.10;;;;;;;0.33;100.00;99993.97;4925195;29;20115;-87
2022/03/31 20:12:42;;;;;;;6.55;4.88;;;;;;;0.32;100.00;99992.34;4955538;23;20043;-86
2022/03/31 20:15:08;;;;;;;10.20;6.07;;;;;;;0.19;100.00;99982.69;4951713;29;20049;-86
2022/03/31 20:25:07;;;;;;;9.20;6.28;;;;;;;0.33;100.00;100009.78;4952993;29;20260;-87
2022/03/31 20:28:22;;;;;;;9.40;6.05;;;;;;;0.30;100.00;100017.09;4950933;29;20559;-87
2022/03/31 20:34:59;;;;;;;12.00;6.28;;;;;;;0.32;100.00;100006.34;4943445;28;20111;-87
2022/03/31 20:37:32;;;;;;;7.93;5.53;;;;;;;0.06;100.00;99979.09;4951332;29;20333;-87
2022/03/31 20:48:25;;;;;;;9.57;6.50;;;;;;;0.29;100.00;100027.84;5070708;23;20063;-87
2022/03/31 20:58:48;;;;;;;10.38;7.10;;;;;;;0.19;100.00;100003.75;5316141;23;20060;-87
2022/03/31 21:10:32;;;;;;;7.95;6.28;;;;;;;0.09;100.00;100009.50;4945778;28;20086;-86
2022/03/31 21:13:55;;;;;;;8.83;6.00;;;;;;;0.20;100.00;100031.72;5197097;23;21946;-87
2022/03/31 21:16:38;;;;;;;7.68;5.57;;;;;;;0.01;100.00;99996.53;4928911;29;20043;-87
2022/03/31 21:22:25;;;;;;;8.40;6.78;;;;;;;0.11;100.00;100029.34;4962207;23;20070;-87
2022/03/31 21:24:51;;;;;;;12.10;7.00;;;;;;;0.12;100.00;100030.97;4950209;28;20031;-87
2022/03/31 21:27:16;;;;;;;10.70;7.20;;;;;;;0.09;100.00;100031.38;4946261;29;20122;-87
2022/03/31 21:29:43;;;;;;;9.70;7.10;;;;;;;0.03;100.00;100026.91;4932120;29;20380;-87
2022/03/31 21:32:08;;;;;;;10.43;7.13;;;;;;;0.16;100.00;100038.47;4915264;29;20036;-87
2022/03/31 21:34:34;;;;;;;17.97;9.03;;;;;;;0.19;100.00;100040.66;4946725;29;20747;-87
2022/03/31 21:36:59;;;;;;;18.27;10.43;;;;;;;0.16;100.00;100033.97;4950937;29;20039;-87
2022/03/31 21:39:28;;;;;;;16.40;9.53;;;;;;;0.16;100.00;100043.72;4951610;28;20031;-86
2022/03/31 21:41:54;;;;;;;18.30;11.07;;;;;;;0.18;100.00;100039.06;4950305;29;20569;-88
2022/03/31 21:44:19;;;;;;;21.70;12.20;;;;;;;0.16;100.00;100030.56;4929217;29;20032;-87
2022/03/31 21:46:44;;;;;;;19.03;11.23;;;;;;;0.20;100.00;100042.28;4932093;29;20024;-86
2022/03/31 21:49:10;;;;;;;16.97;11.10;;;;;;;0.05;100.00;100019.63;4914988;29;20023;-87
2022/03/31 21:51:37;;;;;;;24.48;12.60;;;;;;;0.20;100.00;100043.09;4932266;29;20035;-87
2022/03/31 21:54:04;;;;;;;24.45;13.15;;;;;;;0.18;100.00;100039.84;4942653;29;20391;-87
2022/03/31 21:56:33;;;;;;;25.23;13.85;;;;;;;0.32;100.00;100059.06;4931631;28;20032;-87
2022/03/31 21:58:59;;;;;;;26.35;14.95;;;;;;;0.27;100.00;100043.84;4949687;28;20031;-87
2022/03/31 22:01:29;;;;;;;26.50;14.80;;;;;;;0.33;100.00;100058.06;4951896;29;20375;-87
2022/03/31 22:03:56;;;;;;;29.85;15.10;;;;;;;0.28;100.00;100052.59;4950495;28;20024;-87
2022/03/31 22:06:22;;;;;;;27.23;15.40;;;;;;;0.41;100.00;100080.72;4951043;29;20056;-88
2022/03/31 22:11:36;;;;;;;27.60;16.20;;;;;;;0.37;100.00;100075.03;4994910;23;20242;-86
2022/03/31 22:14:06;;;;;;;22.40;14.45;;;;;;;0.46;100.00;100083.53;4915247;29;20507;-87
2022/03/31 22:16:54;;;;;;;23.20;14.20;;;;;;;0.39;100.00;100080.91;5363295;23;20017;-87
2022/03/31 22:23:01;;;;;;;23.00;13.97;;;;;;;0.01;100.00;100046.59;4934982;29;20412;-87
2022/03/31 22:25:58;;;;;;;23.00;12.88;;;;;;;0.22;100.00;100083.22;4936097;29;20031;-86
2022/03/31 22:38:46;;;;;;;20.80;12.60;;;;;;;-0.16;100.00;100082.06;5649269;23;20063;-88
2022/03/31 22:41:11;;;;;;;22.23;13.83;;;;;;;-0.24;100.00;100079.66;4935073;29;20031;-88
2022/03/31 22:43:37;;;;;;;19.57;12.03;;;;;;;-0.28;100.00;100085.56;4932297;29;20035;-88
2022/03/31 22:46:05;;;;;;;21.35;13.00;;;;;;;-0.44;100.00;100077.03;4932726;29;20484;-88
2022/03/31 22:48:31;;;;;;;20.52;13.10;;;;;;;-0.44;100.00;100090.19;4935253;29;20038;-87
2022/03/31 22:50:57;;;;;;;17.88;10.68;;;;;;;-0.46;100.00;100092.25;4935940;29;20103;-88
2022/03/31 22:53:23;;;;;;;21.35;12.00;;;;;;;-0.49;100.00;100087.38;4933568;29;20121;-88
2022/03/31 22:55:48;;;;;;;20.87;12.37;;;;;;;-0.48;100.00;100089.81;4935226;29;20040;-88
2022/03/31 22:58:13;;;;;;;21.07;12.97;;;;;;;-0.48;100.00;100092.44;4934450;29;20491;-88
2022/03/31 23:00:42;;;;;;;17.53;10.50;;;;;;;-0.56;100.00;100076.03;4917081;29;20411;-89
2022/03/31 23:03:09;;;;;;;18.45;11.50;;;;;;;-0.44;100.00;100094.66;4933877;29;20032;-88
2022/03/31 23:05:37;;;;;;;19.35;12.55;;;;;;;-0.48;100.00;100089.81;4935302;29;20019;-88
2022/03/31 23:08:02;;;;;;;13.43;9.05;;;;;;;-0.48;100.00;100089.81;4935081;29;20498;-88
2022/03/31 23:10:28;;;;;;;18.57;11.23;;;;;;;-0.54;100.00;100089.81;4934492;29;20036;-88
2022/03/31 23:13:28;;;;;;;;;;;;;;;;;;;;;
2022/03/31 23:15:55;;;;;;;14.60;8.83;;;;;;;-0.67;100.00;100088.78;4913450;23;20077;-88
2022/03/31 23:18:21;;;;;;;14.30;8.17;;;;;;;-0.68;100.00;100094.25;4935403;29;20309;-88
2022/03/31 23:20:55;;;;;;;12.88;8.90;;;;;;;-0.74;100.00;100084.53;4973015;23;20310;-88
2022/03/31 23:23:21;;;;;;;14.02;8.50;;;;;;;-0.82;100.00;100083.72;4939913;28;20055;-88
2022/03/31 23:29:14;;;;;;;13.02;8.07;;;;;;;-0.62;100.00;100122.41;4943383;29;20035;-89
2022/03/31 23:31:40;;;;;;;14.65;9.35;;;;;;;-0.96;100.00;100067.09;4962297;23;20527;-88
2022/03/31 23:37:23;;;;;;;12.23;6.88;;;;;;;-0.88;100.00;100084.50;4933436;29;20381;-88
2022/03/31 23:40:15;;;;;;;9.77;6.97;;;;;;;-0.85;100.00;100085.94;4897298;29;20033;-88
2022/03/31 23:42:44;;;;;;;14.13;8.18;;;;;;;-0.71;100.00;100119.16;4881782;29;20040;-89
2022/03/31 23:45:58;;;;;;;12.80;6.88;;;;;;;-0.75;100.00;100122.38;4906179;29;20039;-88
2022/03/31 23:48:24;;;;;;;10.00;6.47;;;;;;;-0.96;100.00;100101.28;4914052;29;20044;-88
2022/03/31 23:50:50;;;;;;;12.03;7.17;;;;;;;-0.81;100.00;100122.16;4914925;29;20038;-88
2022/03/31 23:53:17;;;;;;;12.18;7.00;;;;;;;-0.83;100.00;100126.03;4911045;29;20231;-88
2022/03/31 23:55:43;;;;;;;8.98;5.38;;;;;;;-0.86;100.00;100124.56;4896954;29;20100;-88
2022/03/31 23:58:09;;;;;;;10.50;6.90;;;;;;;-0.88;100.00;100133.69;4895774;29;20473;-88
